KACK/ACK METAR and TAF weather

Enter ICAO airport designator
Station Type Date Time Source
KACK METAR 2020/01/21 20:53 UTC NOAA

KACK 212053Z 35009KT 10SM BKN021 M01/M06 A3036 RMK AO2 SLP280 T10111061 53007


Station Type Date Time Source
KACK Decoded METAR 2020/01/21 20:53 UTC NOAA

NANTUCKET MEMORIAL AIRPORT, MA, United States (KACK) 41-15N 70-04W 16M
Jan 21, 2020 - 03:53 PM EST / 2020.01.21 2053 UTC
Wind: from the N (350 degrees) at 10 MPH (9 KT):0
Visibility: 10 mile(s):0
Sky conditions: mostly cloudy
Temperature: 30.0 F (-1.1 C)
Windchill: 21 F (-6 C):1
Dew Point: 21.0 F (-6.1 C)
Relative Humidity: 68%
Pressure (altimeter): 30.36 in. Hg (1028 hPa)
Pressure tendency: 0.02 inches (0.7 hPa) higher than three hours ago
ob: KACK 212053Z 35009KT 10SM BKN021 M01/M06 A3036 RMK AO2 SLP280 T10111061 53007
cycle: 21

Station Type Date Time Source
KACK TAF 2020/01/21 18:40 UTC NOAA

TAF KACK 211737Z 2118/2218 01010KT P6SM BKN025
FM212200 36010KT P6SM SCT030
FM220300 00000KT P6SM SCT150
FM221500 23005KT P6SM SKC

Example: see airport list